Time;durP1;ratioP1;P1;durP2;ratioP2;P2;SDS_P1;SDS_P2;PMS_P1;PMS_P2;Temp;Humidity;BMP_temperature;BMP_pressure;BME280_temperature;BME280_humidity;BME280_pressure;Samples;Min_cycle;Max_cycle;Signal;HPM_P1;HPM_P2
2023/09/11 04:13:28;;;;;;;1.52;1.30;;;;;;;;;;5046616;28;20405;-80
2023/09/11 04:15:54;;;;;;;0.95;0.88;;;;;;;;;;5052713;28;20526;-80
2023/09/11 04:18:19;;;;;;;1.33;0.82;;;;;;;;;;5051518;28;20492;-83
2023/09/11 04:20:45;;;;;;;0.95;0.73;;;;;;;;;;5046981;28;20132;-81
2023/09/11 04:23:11;;;;;;;3.95;1.83;;;;;;;;;;5043596;28;20457;-81
2023/09/11 04:25:37;;;;;;;1.60;1.15;;;;;;;;;;5053381;28;20082;-82
2023/09/11 04:28:02;;;;;;;3.05;1.33;;;;;;;;;;5050899;28;20436;-80
2023/09/11 04:30:28;;;;;;;1.63;0.93;;;;;;;;;;5051314;28;20048;-83
2023/09/11 04:32:53;;;;;;;1.92;1.63;;;;;;;;;;5049855;28;20021;-80
2023/09/11 04:35:20;;;;;;;2.03;0.80;;;;;;;;;;5052813;28;20607;-83
2023/09/11 04:37:45;;;;;;;0.73;0.70;;;;;;;;;;5047055;28;20037;-83
2023/09/11 04:40:11;;;;;;;0.98;0.85;;;;;;;;;;5045891;28;20033;-81
2023/09/11 04:42:37;;;;;;;1.88;1.40;;;;;;;;;;5047097;28;20059;-82
2023/09/11 04:45:03;;;;;;;1.10;0.70;;;;;;;;;;5049465;28;20029;-82
2023/09/11 04:47:31;;;;;;;1.05;0.93;;;;;;;;;;5050011;28;20392;-81
2023/09/11 04:49:57;;;;;;;0.80;0.70;;;;;;;;;;5043472;28;20025;-83
2023/09/11 04:52:22;;;;;;;3.92;1.50;;;;;;;;;;5049354;28;20028;-83
2023/09/11 04:54:50;;;;;;;1.15;1.02;;;;;;;;;;5047706;28;20134;-81
2023/09/11 04:57:16;;;;;;;0.75;0.75;;;;;;;;;;5048533;28;20082;-82
2023/09/11 04:59:42;;;;;;;1.38;0.90;;;;;;;;;;5050026;28;20033;-77
2023/09/11 05:02:10;;;;;;;2.17;1.13;;;;;;;;;;5046003;28;20460;-83
2023/09/11 05:04:35;;;;;;;6.20;0.95;;;;;;;;;;5044146;28;20444;-78
2023/09/11 05:07:01;;;;;;;1.15;0.88;;;;;;;;;;5037053;28;20061;-78
2023/09/11 05:09:27;;;;;;;1.45;1.23;;;;;;;;;;5051703;28;20020;-78
2023/09/11 05:11:52;;;;;;;1.00;0.82;;;;;;;;;;5048775;28;20056;-78
2023/09/11 05:14:20;;;;;;;1.13;1.00;;;;;;;;;;5042403;28;20251;-78
2023/09/11 05:16:45;;;;;;;1.73;0.70;;;;;;;;;;5050105;28;20071;-78
2023/09/11 05:19:11;;;;;;;2.08;0.70;;;;;;;;;;5042715;28;20473;-78
2023/09/11 05:21:36;;;;;;;1.40;0.82;;;;;;;;;;5056466;28;20025;-78
2023/09/11 05:24:05;;;;;;;0.80;0.60;;;;;;;;;;5033758;28;20029;-77
2023/09/11 05:26:31;;;;;;;2.15;0.95;;;;;;;;;;5032747;28;20615;-77
2023/09/11 05:28:57;;;;;;;1.52;0.90;;;;;;;;;;5032420;28;20028;-78
2023/09/11 05:31:22;;;;;;;3.55;1.33;;;;;;;;;;5041606;28;20024;-80
2023/09/11 05:33:48;;;;;;;1.35;1.05;;;;;;;;;;5021204;28;20021;-78
2023/09/11 05:36:13;;;;;;;1.58;1.10;;;;;;;;;;5014819;28;20047;-78
2023/09/11 05:38:39;;;;;;;1.75;0.65;;;;;;;;;;5022298;28;20037;-79
2023/09/11 05:41:04;;;;;;;1.73;1.05;;;;;;;;;;5022456;28;20033;-80
2023/09/11 05:43:30;;;;;;;0.77;0.70;;;;;;;;;;5024930;28;20025;-78
2023/09/11 05:45:56;;;;;;;0.60;0.60;;;;;;;;;;5024557;28;20025;-78
2023/09/11 05:48:25;;;;;;;2.28;0.85;;;;;;;;;;5025331;28;20074;-78
2023/09/11 05:50:51;;;;;;;0.88;0.88;;;;;;;;;;5019804;28;20068;-80
2023/09/11 05:53:16;;;;;;;1.67;0.85;;;;;;;;;;5025104;28;20469;-81
2023/09/11 05:55:48;;;;;;;2.45;1.88;;;;;;;;;;5037309;28;20051;-81
2023/09/11 05:58:14;;;;;;;1.17;0.98;;;;;;;;;;5033461;28;20029;-81
2023/09/11 06:00:39;;;;;;;1.30;0.93;;;;;;;;;;5031943;28;20116;-82
2023/09/11 06:03:04;;;;;;;0.70;0.70;;;;;;;;;;5034269;28;20025;-82
2023/09/11 06:05:32;;;;;;;0.80;0.57;;;;;;;;;;5022768;28;20038;-82
2023/09/11 06:07:57;;;;;;;1.00;0.80;;;;;;;;;;5026824;28;20029;-82
2023/09/11 06:10:23;;;;;;;1.42;1.00;;;;;;;;;;5035308;28;20277;-82
2023/09/11 06:12:48;;;;;;;1.05;0.98;;;;;;;;;;5033256;28;20519;-82
2023/09/11 06:15:14;;;;;;;0.80;0.80;;;;;;;;;;5032620;28;20030;-82
2023/09/11 06:17:40;;;;;;;1.40;1.10;;;;;;;;;;5024195;28;20113;-81
2023/09/11 06:20:13;;;;;;;1.25;1.15;;;;;;;;;;5035406;28;20108;-80
2023/09/11 06:22:39;;;;;;;2.50;1.45;;;;;;;;;;5035365;28;20029;-80
2023/09/11 06:25:05;;;;;;;1.65;1.17;;;;;;;;;;5034337;28;20039;-80
2023/09/11 06:27:31;;;;;;;1.17;0.95;;;;;;;;;;5037900;28;20021;-80
2023/09/11 06:29:56;;;;;;;2.10;1.75;;;;;;;;;;5045314;28;20029;-79
2023/09/11 06:32:22;;;;;;;1.52;1.42;;;;;;;;;;5032242;28;20031;-82
2023/09/11 06:34:49;;;;;;;0.85;0.85;;;;;;;;;;5045708;28;20029;-81
2023/09/11 06:37:14;;;;;;;0.68;0.68;;;;;;;;;;5030498;28;20025;-81
2023/09/11 06:39:39;;;;;;;2.08;1.65;;;;;;;;;;5045197;28;20033;-80
2023/09/11 06:42:08;;;;;;;1.63;1.23;;;;;;;;;;5038477;28;20033;-81
2023/09/11 06:44:33;;;;;;;2.25;0.85;;;;;;;;;;5036022;28;20025;-80
2023/09/11 06:46:58;;;;;;;1.77;1.27;;;;;;;;;;5038276;28;20469;-82
2023/09/11 06:49:24;;;;;;;1.45;1.35;;;;;;;;;;5037299;28;20032;-80
2023/09/11 06:51:49;;;;;;;2.50;1.23;;;;;;;;;;5032724;28;20159;-80
2023/09/11 06:54:15;;;;;;;0.45;0.45;;;;;;;;;;5031264;28;20045;-81
2023/09/11 06:56:40;;;;;;;2.67;0.90;;;;;;;;;;5042821;28;20033;-83
2023/09/11 06:59:06;;;;;;;0.65;0.52;;;;;;;;;;5045355;28;20883;-83
2023/09/11 07:01:36;;;;;;;0.90;0.90;;;;;;;;;;5032401;28;20021;-81
2023/09/11 07:04:02;;;;;;;;;;;;;;;;;;5031216;28;20053;-82
2023/09/11 07:06:27;;;;;;;1.42;0.85;;;;;;;;;;5040655;28;20003;-82
2023/09/11 07:08:52;;;;;;;1.10;0.98;;;;;;;;;;5039146;28;20044;-83
2023/09/11 07:11:18;;;;;;;1.80;1.08;;;;;;;;;;5028171;28;20039;-82
2023/09/11 07:13:43;;;;;;;1.70;1.33;;;;;;;;;;5038602;28;20499;-82
2023/09/11 07:16:09;;;;;;;2.53;1.13;;;;;;;;;;5037902;28;20377;-82
2023/09/11 07:18:34;;;;;;;2.80;1.35;;;;;;;;;;5039173;28;20029;-82
2023/09/11 07:21:00;;;;;;;3.22;1.55;;;;;;;;;;5044723;28;20099;-82
2023/09/11 07:23:27;;;;;;;1.10;0.88;;;;;;;;;;5037692;28;20053;-82
2023/09/11 07:25:55;;;;;;;1.65;1.25;;;;;;;;;;5043057;28;20501;-84
2023/09/11 07:28:20;;;;;;;1.83;0.75;;;;;;;;;;5040487;28;20120;-83
2023/09/11 07:30:46;;;;;;;1.17;0.82;;;;;;;;;;5045371;28;20124;-82
2023/09/11 07:33:11;;;;;;;1.58;1.10;;;;;;;;;;5036848;28;20032;-83
2023/09/11 07:35:37;;;;;;;0.82;0.82;;;;;;;;;;5037187;28;20035;-82
2023/09/11 07:38:05;;;;;;;2.30;1.15;;;;;;;;;;5032565;28;20059;-82
2023/09/11 07:40:31;;;;;;;0.75;0.73;;;;;;;;;;5034214;28;20032;-82
2023/09/11 07:42:56;;;;;;;3.90;0.77;;;;;;;;;;5035070;28;20485;-81
2023/09/11 07:45:22;;;;;;;1.02;0.75;;;;;;;;;;5035058;28;20026;-81
2023/09/11 07:47:47;;;;;;;2.28;1.13;;;;;;;;;;5039862;28;20029;-81
2023/09/11 07:50:12;;;;;;;2.28;0.90;;;;;;;;;;5040553;28;20043;-82
2023/09/11 07:52:38;;;;;;;0.50;0.50;;;;;;;;;;5043977;28;20032;-81
2023/09/11 07:55:04;;;;;;;0.52;0.52;;;;;;;;;;5040943;28;20025;-81
2023/09/11 07:57:30;;;;;;;0.88;0.88;;;;;;;;;;5027857;28;20033;-82
2023/09/11 07:59:56;;;;;;;1.95;1.52;;;;;;;;;;5038411;28;20416;-80
2023/09/11 08:02:22;;;;;;;3.60;1.35;;;;;;;;;;5034241;28;20394;-83
2023/09/11 08:04:47;;;;;;;2.03;0.90;;;;;;;;;;5039316;28;20033;-81
2023/09/11 08:07:13;;;;;;;3.75;1.20;;;;;;;;;;5022846;28;20022;-83
2023/09/11 08:09:38;;;;;;;2.03;1.45;;;;;;;;;;5027387;28;20131;-82
2023/09/11 08:12:06;;;;;;;4.13;1.20;;;;;;;;;;5030056;28;20026;-81
2023/09/11 08:14:32;;;;;;;1.30;0.98;;;;;;;;;;5036233;28;20093;-83
2023/09/11 08:16:57;;;;;;;2.38;0.82;;;;;;;;;;5033632;28;20105;-82
2023/09/11 08:19:23;;;;;;;1.92;1.10;;;;;;;;;;5023682;28;20041;-82
2023/09/11 08:21:48;;;;;;;1.17;1.05;;;;;;;;;;5043177;28;20033;-82
2023/09/11 08:24:14;;;;;;;1.63;1.00;;;;;;;;;;5042836;28;20021;-84
2023/09/11 08:26:39;;;;;;;0.85;0.82;;;;;;;;;;5043224;28;20470;-81
2023/09/11 08:29:10;;;;;;;1.20;1.10;;;;;;;;;;5038069;28;20017;-81
2023/09/11 08:31:40;;;;;;;1.35;0.88;;;;;;;;;;5033657;28;20064;-80
2023/09/11 08:34:09;;;;;;;1.55;1.00;;;;;;;;;;5036759;28;20516;-81
2023/09/11 08:36:34;;;;;;;1.75;1.08;;;;;;;;;;5039841;28;20029;-80
2023/09/11 08:39:06;;;;;;;2.63;1.95;;;;;;;;;;5030909;28;20017;-80
2023/09/11 08:41:33;;;;;;;0.47;0.47;;;;;;;;;;5033077;28;20485;-82
2023/09/11 08:43:58;;;;;;;2.40;1.00;;;;;;;;;;5031347;28;20111;-81
2023/09/11 08:46:26;;;;;;;1.30;1.13;;;;;;;;;;5039884;28;20065;-82
2023/09/11 08:48:54;;;;;;;3.90;1.35;;;;;;;;;;5026682;28;20029;-83
2023/09/11 08:51:33;;;;;;;0.80;0.73;;;;;;;;;;5032655;28;20124;-82
2023/09/11 08:54:02;;;;;;;1.88;0.88;;;;;;;;;;5029099;28;20034;-82
2023/09/11 08:56:29;;;;;;;0.60;0.60;;;;;;;;;;5028641;28;20433;-81
2023/09/11 08:58:55;;;;;;;3.70;1.25;;;;;;;;;;5026617;28;20087;-81
2023/09/11 09:01:21;;;;;;;1.15;1.02;;;;;;;;;;5027236;28;20049;-81
2023/09/11 09:03:49;;;;;;;1.95;1.02;;;;;;;;;;5032437;28;20439;-82
2023/09/11 09:06:16;;;;;;;1.55;1.05;;;;;;;;;;5030919;28;20028;-84
2023/09/11 09:08:43;;;;;;;1.33;1.02;;;;;;;;;;5036421;28;20534;-85
2023/09/11 09:11:08;;;;;;;4.07;0.88;;;;;;;;;;5037484;28;20021;-84
2023/09/11 09:13:35;;;;;;;1.40;0.98;;;;;;;;;;5038355;28;20029;-84
2023/09/11 09:16:03;;;;;;;2.05;1.00;;;;;;;;;;5032316;28;20034;-83
2023/09/11 09:18:29;;;;;;;2.20;1.13;;;;;;;;;;5043339;28;20442;-83
2023/09/11 09:20:57;;;;;;;1.25;0.85;;;;;;;;;;5035035;28;20025;-82
2023/09/11 09:23:35;;;;;;;1.05;0.90;;;;;;;;;;5034699;28;20111;-84
2023/09/11 09:26:06;;;;;;;1.42;1.08;;;;;;;;;;5034111;28;20466;-82
2023/09/11 09:28:33;;;;;;;7.88;1.40;;;;;;;;;;5032637;28;20037;-82
2023/09/11 09:30:59;;;;;;;5.47;1.15;;;;;;;;;;5036308;28;20056;-83
2023/09/11 09:33:24;;;;;;;1.85;0.90;;;;;;;;;;5047868;28;20017;-84
2023/09/11 09:35:50;;;;;;;1.83;0.88;;;;;;;;;;5038614;28;20029;-82
2023/09/11 09:38:19;;;;;;;1.65;0.80;;;;;;;;;;5033692;28;20483;-83
2023/09/11 09:40:50;;;;;;;2.55;1.00;;;;;;;;;;5031078;28;20031;-83
2023/09/11 09:43:17;;;;;;;1.05;0.95;;;;;;;;;;5044247;28;20056;-82
2023/09/11 09:45:42;;;;;;;1.27;0.90;;;;;;;;;;5039654;28;20065;-83
2023/09/11 09:48:19;;;;;;;4.03;1.45;;;;;;;;;;5040168;28;20061;-82
2023/09/11 09:50:51;;;;;;;1.10;1.00;;;;;;;;;;5032028;28;20048;-82
2023/09/11 09:53:20;;;;;;;0.60;0.60;;;;;;;;;;5031627;28;20040;-82
2023/09/11 09:55:46;;;;;;;3.72;1.15;;;;;;;;;;5036238;28;20429;-81
2023/09/11 09:58:12;;;;;;;1.60;0.93;;;;;;;;;;5036415;28;20032;-84
2023/09/11 10:00:37;;;;;;;1.00;0.90;;;;;;;;;;5029303;28;20417;-83
2023/09/11 10:03:03;;;;;;;0.93;0.80;;;;;;;;;;5044372;28;20064;-81
2023/09/11 10:05:29;;;;;;;1.15;0.80;;;;;;;;;;5022651;28;20489;-83
2023/09/11 10:07:59;;;;;;;0.70;0.50;;;;;;;;;;5028347;28;20902;-83
2023/09/11 10:10:30;;;;;;;1.42;1.10;;;;;;;;;;5032099;28;20108;-83
2023/09/11 10:13:05;;;;;;;0.90;0.77;;;;;;;;;;5024549;28;20043;-82
2023/09/11 10:15:32;;;;;;;1.85;1.27;;;;;;;;;;5030637;28;20041;-82
2023/09/11 10:17:58;;;;;;;2.33;0.98;;;;;;;;;;5040631;28;20029;-83
2023/09/11 10:20:25;;;;;;;2.20;1.35;;;;;;;;;;5039128;28;20033;-82
2023/09/11 10:22:55;;;;;;;1.38;0.82;;;;;;;;;;5038215;28;20030;-81
2023/09/11 10:25:22;;;;;;;2.65;0.88;;;;;;;;;;5037006;28;20029;-82
2023/09/11 10:27:50;;;;;;;0.82;0.63;;;;;;;;;;5045768;28;20029;-83
2023/09/11 10:30:21;;;;;;;1.88;1.02;;;;;;;;;;5034058;28;20061;-86
2023/09/11 10:33:00;;;;;;;2.55;1.17;;;;;;;;;;5033991;28;20068;-83
2023/09/11 10:35:29;;;;;;;2.80;1.38;;;;;;;;;;5035206;28;20496;-85
2023/09/11 10:37:57;;;;;;;1.25;0.85;;;;;;;;;;5025531;28;20037;-84
2023/09/11 10:40:31;;;;;;;1.30;0.98;;;;;;;;;;5027202;28;20437;-84
2023/09/11 10:42:57;;;;;;;1.40;0.82;;;;;;;;;;5035338;28;20021;-83
2023/09/11 10:45:32;;;;;;;6.35;1.10;;;;;;;;;;5037417;28;20040;-83
2023/09/11 10:47:57;;;;;;;3.10;0.90;;;;;;;;;;5031887;28;20025;-82
2023/09/11 10:50:24;;;;;;;1.83;1.10;;;;;;;;;;5043015;28;20047;-81
2023/09/11 10:52:55;;;;;;;2.53;1.15;;;;;;;;;;5042082;28;20022;-82
2023/09/11 10:55:23;;;;;;;0.75;0.65;;;;;;;;;;5027402;28;20026;-82
2023/09/11 10:57:51;;;;;;;1.25;0.90;;;;;;;;;;5032084;28;20025;-81
2023/09/11 11:00:16;;;;;;;5.18;1.25;;;;;;;;;;5030801;28;20115;-82
2023/09/11 11:02:43;;;;;;;0.82;0.60;;;;;;;;;;5029854;28;20153;-84
2023/09/11 11:05:14;;;;;;;0.85;0.77;;;;;;;;;;5037722;28;20461;-82
2023/09/11 11:07:41;;;;;;;1.92;1.05;;;;;;;;;;5031915;28;20033;-86
2023/09/11 11:10:12;;;;;;;0.50;0.50;;;;;;;;;;5045613;28;20025;-82
2023/09/11 11:12:40;;;;;;;2.25;0.98;;;;;;;;;;5042118;28;20058;-82
2023/09/11 11:15:21;;;;;;;1.88;0.82;;;;;;;;;;5038596;28;20026;-87
2023/09/11 11:17:47;;;;;;;0.85;0.80;;;;;;;;;;5029343;28;20033;-84
2023/09/11 11:20:17;;;;;;;1.30;1.00;;;;;;;;;;5029685;28;20022;-83
2023/09/11 11:22:43;;;;;;;1.50;1.35;;;;;;;;;;5034538;28;20045;-82
2023/09/11 11:25:12;;;;;;;0.98;0.60;;;;;;;;;;5034809;28;21300;-82
2023/09/11 11:27:39;;;;;;;1.45;0.98;;;;;;;;;;5032962;28;20062;-81
2023/09/11 11:30:05;;;;;;;1.33;0.80;;;;;;;;;;5029643;28;20026;-84
2023/09/11 11:32:32;;;;;;;3.35;1.17;;;;;;;;;;5029166;28;20083;-81
2023/09/11 11:35:02;;;;;;;2.05;1.42;;;;;;;;;;5040605;28;20393;-84
2023/09/11 11:37:31;;;;;;;3.10;1.17;;;;;;;;;;5025728;28;20036;-83
2023/09/11 11:40:00;;;;;;;2.55;0.98;;;;;;;;;;5029009;28;20017;-81
2023/09/11 11:42:26;;;;;;;3.08;1.30;;;;;;;;;;5033650;28;21840;-82
2023/09/11 11:44:53;;;;;;;0.73;0.50;;;;;;;;;;5036518;28;20076;-84
2023/09/11 11:47:20;;;;;;;0.68;0.68;;;;;;;;;;5038490;28;20029;-83
2023/09/11 11:49:47;;;;;;;1.08;0.75;;;;;;;;;;5033584;28;20026;-80
2023/09/11 11:52:12;;;;;;;1.08;0.88;;;;;;;;;;5019870;28;20029;-78
2023/09/11 11:54:37;;;;;;;2.70;1.27;;;;;;;;;;5025959;28;20040;-80
2023/09/11 11:57:05;;;;;;;0.73;0.60;;;;;;;;;;5020965;28;20510;-81
2023/09/11 11:59:37;;;;;;;1.02;0.88;;;;;;;;;;5033205;28;20473;-79
2023/09/11 12:02:03;;;;;;;0.75;0.73;;;;;;;;;;5031275;28;20024;-80
2023/09/11 12:04:29;;;;;;;1.70;1.08;;;;;;;;;;5028451;28;20390;-79
2023/09/11 12:06:57;;;;;;;1.27;0.80;;;;;;;;;;5032437;28;20104;-83
2023/09/11 12:09:23;;;;;;;1.23;0.85;;;;;;;;;;5040988;28;21259;-81
2023/09/11 12:11:50;;;;;;;0.43;0.43;;;;;;;;;;5032667;28;20060;-83
2023/09/11 12:14:16;;;;;;;1.17;0.95;;;;;;;;;;5030048;28;20033;-81
2023/09/11 12:16:43;;;;;;;1.58;1.02;;;;;;;;;;5044103;28;20116;-82
2023/09/11 12:19:08;;;;;;;2.13;1.20;;;;;;;;;;5036526;28;20040;-84
2023/09/11 12:21:34;;;;;;;2.15;1.25;;;;;;;;;;5031353;28;20033;-80
2023/09/11 12:24:00;;;;;;;1.35;1.13;;;;;;;;;;5043283;28;20040;-82
2023/09/11 12:26:29;;;;;;;1.92;1.13;;;;;;;;;;5041725;28;20067;-82
2023/09/11 12:28:56;;;;;;;2.05;0.80;;;;;;;;;;5031701;28;20037;-84
2023/09/11 12:31:22;;;;;;;1.77;1.08;;;;;;;;;;5043398;28;20490;-83
2023/09/11 12:33:55;;;;;;;1.48;1.00;;;;;;;;;;5041462;28;20029;-82
2023/09/11 12:36:21;;;;;;;1.48;0.90;;;;;;;;;;5040332;28;20392;-82
2023/09/11 12:38:48;;;;;;;0.90;0.68;;;;;;;;;;5034477;28;20033;-86
2023/09/11 12:41:14;;;;;;;2.35;1.10;;;;;;;;;;5035803;28;20036;-83
2023/09/11 12:43:40;;;;;;;0.57;0.57;;;;;;;;;;5039678;28;20033;-84
2023/09/11 12:46:05;;;;;;;3.55;1.00;;;;;;;;;;5042663;28;20500;-88
2023/09/11 12:48:31;;;;;;;1.73;0.88;;;;;;;;;;5039098;28;20036;-85
2023/09/11 12:50:57;;;;;;;0.90;0.77;;;;;;;;;;5047921;28;20422;-85
2023/09/11 12:53:22;;;;;;;1.00;0.90;;;;;;;;;;5042186;28;20028;-88
2023/09/11 12:55:48;;;;;;;0.98;0.82;;;;;;;;;;5037778;28;20350;-86
2023/09/11 12:58:16;;;;;;;2.13;0.95;;;;;;;;;;5043480;28;20108;-84
2023/09/11 13:00:47;;;;;;;3.95;1.38;;;;;;;;;;5038700;28;20129;-86
2023/09/11 13:03:13;;;;;;;3.85;1.23;;;;;;;;;;5040598;28;20028;-86
2023/09/11 13:05:38;;;;;;;1.08;0.98;;;;;;;;;;5044354;28;20033;-84
2023/09/11 13:08:04;;;;;;;3.65;1.17;;;;;;;;;;5040470;28;20041;-84
2023/09/11 13:10:31;;;;;;;1.15;1.02;;;;;;;;;;5047494;28;20036;-85
2023/09/11 13:12:56;;;;;;;3.50;1.13;;;;;;;;;;5043543;28;20033;-83
2023/09/11 13:15:22;;;;;;;1.63;0.95;;;;;;;;;;5048050;28;20476;-87
2023/09/11 13:17:48;;;;;;;1.27;0.98;;;;;;;;;;5044003;28;20104;-83
2023/09/11 13:20:13;;;;;;;0.95;0.80;;;;;;;;;;5041563;28;20021;-88
2023/09/11 13:22:41;;;;;;;1.50;0.93;;;;;;;;;;5045535;28;20025;-85
2023/09/11 13:25:07;;;;;;;0.80;0.77;;;;;;;;;;5042170;28;20480;-85
2023/09/11 13:27:32;;;;;;;2.13;1.27;;;;;;;;;;5033671;28;20029;-84
2023/09/11 13:29:58;;;;;;;1.70;0.82;;;;;;;;;;5040573;28;20040;-85
2023/09/11 13:32:24;;;;;;;1.13;0.90;;;;;;;;;;5040278;28;20017;-86
2023/09/11 13:34:49;;;;;;;2.72;1.00;;;;;;;;;;5042775;28;20032;-85
2023/09/11 13:37:15;;;;;;;0.82;0.65;;;;;;;;;;5037973;28;20047;-85
2023/09/11 13:39:41;;;;;;;1.00;0.90;;;;;;;;;;5035890;28;20386;-84
2023/09/11 13:42:07;;;;;;;0.57;0.50;;;;;;;;;;5024386;28;20029;-84
2023/09/11 13:44:33;;;;;;;1.23;0.73;;;;;;;;;;5026887;28;20116;-84
2023/09/11 13:46:59;;;;;;;3.70;1.00;;;;;;;;;;5025043;28;20116;-83
2023/09/11 13:49:25;;;;;;;1.35;0.80;;;;;;;;;;5033075;28;20033;-81
2023/09/11 13:51:52;;;;;;;1.73;0.82;;;;;;;;;;5035289;28;20044;-80
2023/09/11 13:54:18;;;;;;;1.13;1.02;;;;;;;;;;5038157;28;20028;-81
2023/09/11 13:56:43;;;;;;;1.42;0.80;;;;;;;;;;5034877;28;20373;-82
2023/09/11 13:59:09;;;;;;;1.02;0.70;;;;;;;;;;5039411;28;20032;-80
2023/09/11 14:01:34;;;;;;;0.75;0.75;;;;;;;;;;5033110;28;20111;-83
2023/09/11 14:04:00;;;;;;;1.23;0.90;;;;;;;;;;5035334;28;20033;-81
2023/09/11 14:06:25;;;;;;;2.05;1.05;;;;;;;;;;5024692;28;20157;-81
2023/09/11 14:08:50;;;;;;;2.63;1.02;;;;;;;;;;5039483;28;20067;-82
2023/09/11 14:11:16;;;;;;;0.90;0.73;;;;;;;;;;5033346;28;20025;-82
2023/09/11 14:13:41;;;;;;;6.13;1.20;;;;;;;;;;5037920;28;20029;-81
2023/09/11 14:16:07;;;;;;;1.05;0.82;;;;;;;;;;5039206;28;20034;-84
2023/09/11 14:18:32;;;;;;;1.45;0.85;;;;;;;;;;5039765;28;20026;-83
2023/09/11 14:20:58;;;;;;;0.77;0.63;;;;;;;;;;5022045;28;20025;-83
2023/09/11 14:23:23;;;;;;;0.63;0.63;;;;;;;;;;5034035;28;20021;-83
2023/09/11 14:25:49;;;;;;;2.95;1.00;;;;;;;;;;5031068;28;20037;-83
2023/09/11 14:28:14;;;;;;;1.63;0.80;;;;;;;;;;5028954;28;20057;-82
2023/09/11 14:30:40;;;;;;;4.15;0.98;;;;;;;;;;5036254;28;20036;-81
2023/09/11 14:33:05;;;;;;;2.88;1.13;;;;;;;;;;5029428;28;20462;-80
2023/09/11 14:35:31;;;;;;;1.35;0.60;;;;;;;;;;5026027;28;20032;-81
2023/09/11 14:37:56;;;;;;;2.30;1.08;;;;;;;;;;5022558;28;20087;-83
2023/09/11 14:40:21;;;;;;;2.08;1.00;;;;;;;;;;5041502;28;20047;-83
2023/09/11 14:42:48;;;;;;;1.30;0.90;;;;;;;;;;5031809;28;20072;-84
2023/09/11 14:45:14;;;;;;;1.65;0.93;;;;;;;;;;5031975;28;20421;-82
2023/09/11 14:47:40;;;;;;;1.25;0.70;;;;;;;;;;5018173;28;20029;-84
2023/09/11 14:50:08;;;;;;;1.63;1.02;;;;;;;;;;5022891;28;20113;-82
2023/09/11 14:52:34;;;;;;;1.67;1.05;;;;;;;;;;5030449;28;20029;-83
2023/09/11 14:54:59;;;;;;;0.75;0.70;;;;;;;;;;5033953;28;20035;-82
2023/09/11 14:57:24;;;;;;;1.80;0.98;;;;;;;;;;5032173;28;20024;-84
2023/09/11 14:59:50;;;;;;;1.55;0.85;;;;;;;;;;5034465;28;20565;-85
2023/09/11 15:02:16;;;;;;;4.03;1.60;;;;;;;;;;5035545;28;20017;-85
2023/09/11 15:04:41;;;;;;;0.65;0.65;;;;;;;;;;5030178;28;20044;-84
2023/09/11 15:07:08;;;;;;;1.30;0.90;;;;;;;;;;5034467;28;20029;-84
2023/09/11 15:09:33;;;;;;;1.13;0.73;;;;;;;;;;5025709;28;20021;-85
2023/09/11 15:11:59;;;;;;;0.55;0.50;;;;;;;;;;5031552;28;20067;-85
2023/09/11 15:14:24;;;;;;;0.82;0.60;;;;;;;;;;5032657;28;20494;-80
2023/09/11 15:16:50;;;;;;;0.77;0.70;;;;;;;;;;5027498;28;20033;-81
2023/09/11 15:19:15;;;;;;;1.20;0.82;;;;;;;;;;5034543;28;20079;-84
2023/09/11 15:21:41;;;;;;;1.45;1.10;;;;;;;;;;5029613;28;20037;-82
2023/09/11 15:24:06;;;;;;;1.17;0.63;;;;;;;;;;5024099;28;20026;-82
2023/09/11 15:26:32;;;;;;;1.35;0.90;;;;;;;;;;5027933;28;20034;-81
2023/09/11 15:28:57;;;;;;;1.83;0.68;;;;;;;;;;5025079;28;20033;-82
2023/09/11 15:31:23;;;;;;;1.02;0.75;;;;;;;;;;5018352;28;20516;-82
2023/09/11 15:33:49;;;;;;;2.83;1.25;;;;;;;;;;5032881;28;20021;-82
2023/09/11 15:36:14;;;;;;;1.42;1.20;;;;;;;;;;5018936;28;20504;-82
2023/09/11 15:38:41;;;;;;;1.98;0.85;;;;;;;;;;5025970;28;20524;-82
